This is the latest recevied weather packets stored in our database for station/object KD5UMO-1. If no packets are shown the sender has not sent any weather packets the latest 10 day(s).
| Time | Temp. | Humidity | Pressure | Rain* | Wind** | Luminosity | Snow |
|---|---|---|---|---|---|---|---|
| 1777579845 | 16.67° C | 75% | 1014.4 hPa | 0 mm | - | 97 W/m² | - |
| 1777579544 | 16.67° C | 75% | 1015 hPa | 0 mm | - | 74 W/m² | - |
| 1777579244 | 16.67° C | 75% | 1014.8 hPa | 0 mm | - | 80 W/m² | - |
| 1777578940 | 16.67° C | 75% | 1014.8 hPa | 0 mm | - | 67 W/m² | - |
| 1777578635 | 16.67° C | 75% | 1014.6 hPa | 0 mm | - | 73 W/m² | - |
| 1777578335 | 16.67° C | 75% | 1014.5 hPa | 0 mm | - | 83 W/m² | - |
| 1777578032 | 16.67° C | 76% | 1014.4 hPa | 0 mm | - | 86 W/m² | - |
| 1777577726 | 16.67° C | 76% | 1014.2 hPa | 0 mm | - | 87 W/m² | - |
| 1777577423 | 16.67° C | 76% | 1014.7 hPa | 0 mm | - | 73 W/m² | - |
| 1777577120 | 16.67° C | 75% | 1014.7 hPa | 0 mm | - | 82 W/m² | - |
| 1777576816 | 16.67° C | 75% | 1014.4 hPa | 0 mm | - | 108 W/m² | - |
| 1777576516 | 16.67° C | 75% | 1014.3 hPa | 0 mm | - | 105 W/m² | - |
| 1777576212 | 16.67° C | 76% | 1014.2 hPa | 0 mm | - | 116 W/m² | - |
| 1777575908 | 16.67° C | 76% | 1013.9 hPa | 0 mm | - | 122 W/m² | - |
| 1777575604 | 16.67° C | 76% | 1013.7 hPa | 0 mm | - | 112 W/m² | - |
| 1777575301 | 16.67° C | 76% | 1012.7 hPa | 0 mm | - | 260 W/m² | - |
| 1777574996 | 16.67° C | 77% | 1011.9 hPa | 0 mm | - | 263 W/m² | - |
| 1777574693 | 16.67° C | 77% | 1012.5 hPa | 0 mm | - | 194 W/m² | - |
| 1777574390 | 16.67° C | 77% | 1012.6 hPa | 0 mm | - | 180 W/m² | - |
| 1777574085 | 16.67° C | 77% | 1013.3 hPa | 0 mm | - | 208 W/m² | - |
| 1777573780 | 16.67° C | 77% | 1013.8 hPa | 0 mm | - | 253 W/m² | - |
| 1777573477 | 16.67° C | 78% | 1014.2 hPa | 0 mm | - | 221 W/m² | - |
| 1777573172 | 16.67° C | 80% | 1014.2 hPa | 0 mm | - | 247 W/m² | - |
| 1777572869 | 16.67° C | 81% | 1014.6 hPa | 0 mm | - | 154 W/m² | - |
| 1777572566 | 16.11° C | 80% | 1014.2 hPa | 0 mm | - | 205 W/m² | - |
* Rain latest hour (hover to see other rain measurements)
** Current wind speed in m/s (hover to see current wind gust speed)